Terminal Aerodrome Forecast
Issued by NWS Memphis, TN

Home | Current Version | Previous Version | Text Only | Print | Product List | Glossary On
Versions: 1 2 3 4 5 6 7 8 9 10 11 12 13 14 15 16 17
000
FTUS44 KMEG 011120
TAFJBR
TAF
KJBR 011120Z 0112/0212 18009KT 6SM RA BR OVC023
     FM011400 19015G22KT 3SM RA BR OVC007
     FM012000 22011G20KT 3SM -RA BR OVC005
     FM012300 28012G19KT P6SM VCSH OVC010
     FM020100 30012G18KT P6SM OVC025=

USA.gov is the U.S. government's official web portal to all federal, state and local government web resources and services.